Terminal Aerodrome Forecast
Issued by NWS Cleveland, OH

Home | Current Version | Previous Version | Text Only | Print | Product List | Glossary On
Versions: 1 2 3 4 5 6 7 8 9 10 11 12 13 14 15 16 17 18 19 20 21 22 23 24
000
FTUS41 KCLE 240520
TAFMFD
TAF
KMFD 240520Z 2406/2506 15009KT P6SM OVC250
      TEMPO 2408/2412 6SM -SHRA BKN045
     FM241200 20011KT P6SM SCT035 BKN050 PROB30 2418/2422 4SM TSRA
      OVC025CB
     FM242200 21012G18KT 6SM -SHRA VCTS BKN045CB PROB30 2422/2502
      2SM TSRA OVC015CB
     FM250200 23010G18KT P6SM BKN045=

USA.gov is the U.S. government's official web portal to all federal, state and local government web resources and services.